Terminal Aerodrome Forecast
Issued by NWS

Current Version | Previous Version | Text Only | Print | Product List | Glossary Off
Versions: 1 2 3 4 5 6 7 8 9 10 11 12 13 14 15 16 17 18 19 20 21 22 23 24 25 26

949
FTUS41 KILN 222341 AAB
TAFLUK
TAF AMD
KLUK 222341Z 2300/2324 04009KT P6SM SCT050 OVC120
     FM230600 02010KT 6SM -RA BR BKN018 OVC060
     FM231100 36010KT 5SM -RA BR OVC012
     FM231600 35008KT 5SM BR VCSH OVC015
     FM231900 35007KT P6SM OVC015=

USA.gov is the U.S. government's official web portal to all federal, state and local government web resources and services.